createdAt,value
2019-04-29T00:56:22.675Z,74.70
2019-04-29T00:58:52.804Z,74.72
2019-04-29T01:01:25.284Z,74.70
2019-04-29T01:03:55.400Z,74.83
2019-04-29T01:06:25.371Z,74.87
2019-04-29T01:08:56.142Z,74.92
2019-04-29T01:11:26.324Z,74.90
2019-04-29T01:13:56.381Z,74.91
2019-04-29T01:16:28.443Z,74.73
2019-04-29T01:18:59.097Z,74.81
2019-04-29T01:21:29.076Z,74.76
2019-04-29T01:23:59.089Z,74.58
2019-04-29T01:26:44.961Z,74.43
2019-04-29T01:29:16.344Z,74.37
2019-04-29T01:31:46.220Z,74.33
2019-04-29T01:34:21.453Z,74.28
2019-04-29T01:36:54.677Z,74.24
2019-04-29T01:39:30.198Z,74.01
2019-04-29T01:42:19.134Z,73.80
2019-04-29T01:44:49.175Z,74.03
2019-04-29T01:47:19.221Z,74.01
2019-04-29T01:49:49.252Z,73.86
2019-04-29T01:52:19.375Z,73.86
2019-04-29T01:54:49.331Z,74.02
2019-04-29T01:57:19.289Z,74.00
2019-04-29T01:59:49.330Z,73.78
2019-04-29T02:02:19.387Z,73.59
2019-04-29T02:04:49.784Z,73.53
2019-04-29T02:07:19.905Z,73.68
2019-04-29T02:10:14.846Z,73.79
2019-04-29T02:12:46.841Z,73.77
2019-04-29T02:15:18.828Z,73.79
2019-04-29T02:17:50.458Z,73.64
2019-04-29T02:20:25.124Z,73.60
2019-04-29T02:23:15.131Z,73.79
2019-04-29T02:28:14.954Z,73.77
2019-04-29T02:30:47.900Z,74.01
2019-04-29T02:33:17.974Z,74.33
2019-04-29T02:35:48.141Z,74.41
2019-04-29T02:38:55.480Z,74.44
2019-04-29T02:41:40.846Z,74.42
2019-04-29T02:44:12.119Z,74.34
2019-04-29T02:46:42.138Z,74.48
2019-04-29T02:49:12.406Z,74.40
2019-04-29T02:51:45.747Z,74.23
2019-04-29T02:54:16.814Z,74.25
2019-04-29T02:56:50.919Z,74.34
2019-04-29T02:59:26.763Z,74.56
2019-04-29T03:02:04.514Z,74.73
2019-04-29T03:04:39.968Z,74.72
2019-04-29T03:07:10.188Z,74.61
2019-04-29T03:09:45.659Z,74.65
2019-04-29T03:12:16.295Z,74.79
2019-04-29T03:14:46.412Z,75.10
2019-04-29T03:17:20.943Z,75.05
2019-04-29T03:20:15.608Z,75.28
2019-04-29T03:22:46.240Z,75.42
2019-04-29T03:25:16.325Z,75.76
2019-04-29T03:27:46.791Z,75.82
2019-04-29T03:30:17.307Z,76.00
2019-04-29T03:32:47.619Z,75.98
2019-04-29T03:35:18.167Z,75.93
2019-04-29T03:37:48.352Z,75.85
2019-04-29T03:40:18.771Z,75.89
2019-04-29T03:42:48.693Z,75.97
2019-04-29T03:45:18.849Z,76.07
2019-04-29T03:47:49.052Z,76.17
2019-04-29T03:50:20.036Z,76.14
2019-04-29T03:52:50.015Z,76.11
2019-04-29T03:55:37.689Z,76.13
2019-04-29T03:57:51.714Z,76.14
2019-04-29T04:00:21.898Z,76.12
2019-04-29T04:03:03.948Z,76.11
2019-04-29T04:05:43.545Z,76.09
2019-04-29T04:08:19.974Z,76.06
2019-04-29T04:10:50.130Z,76.17
2019-04-29T04:13:21.194Z,76.33
2019-04-29T04:15:51.350Z,76.40
2019-04-29T04:18:26.845Z,76.41
2019-04-29T04:20:57.240Z,76.28
2019-04-29T04:23:27.216Z,76.28
2019-04-29T04:25:57.436Z,76.27
2019-04-29T04:28:27.474Z,76.13
2019-04-29T04:30:57.667Z,76.25
2019-04-29T04:33:27.970Z,76.32
2019-04-29T04:35:58.137Z,76.58
2019-04-29T04:38:33.029Z,76.65
2019-04-29T04:41:06.520Z,76.43
2019-04-29T04:43:36.676Z,76.50
2019-04-29T04:46:04.745Z,76.26
2019-04-29T04:48:35.093Z,76.03
2019-04-29T04:51:05.035Z,75.73
2019-04-29T04:53:35.199Z,75.55
2019-04-29T04:56:06.346Z,75.14
2019-04-29T04:58:36.331Z,74.92
2019-04-29T05:01:06.774Z,74.60
2019-04-29T05:03:36.781Z,74.32
2019-04-29T05:06:06.981Z,73.89
2019-04-29T05:08:37.161Z,73.63
2019-04-29T05:11:07.274Z,73.23
2019-04-29T05:13:38.429Z,72.72
2019-04-29T05:16:08.764Z,72.14
2019-04-29T05:18:38.679Z,71.79
2019-04-29T05:21:09.024Z,71.26
2019-04-29T05:23:41.524Z,71.26
2019-04-29T05:26:10.634Z,70.89
2019-04-29T05:28:40.754Z,70.62
2019-04-29T05:31:10.783Z,70.62
2019-04-29T05:33:41.758Z,69.97
2019-04-29T05:36:26.616Z,69.56
2019-04-29T05:39:07.033Z,69.50
2019-04-29T05:41:36.984Z,69.50
2019-04-29T05:44:15.333Z,68.88
2019-04-29T05:46:48.884Z,68.88
2019-04-29T05:49:22.981Z,68.32
2019-04-29T05:52:04.104Z,68.32
2019-04-29T05:54:34.799Z,68.57
2019-04-29T05:57:04.928Z,68.48
2019-04-29T05:59:35.324Z,68.24
2019-04-29T06:02:05.481Z,68.35
2019-04-29T06:04:35.684Z,68.35
2019-04-29T06:07:05.953Z,67.44
2019-04-29T06:09:36.093Z,67.06
2019-04-29T06:12:10.524Z,66.69
2019-04-29T06:14:40.551Z,66.42
2019-04-29T06:17:10.634Z,66.29
2019-04-29T06:19:41.058Z,66.16
2019-04-29T06:22:11.331Z,65.88
2019-04-29T06:24:42.252Z,65.80
2019-04-29T06:27:12.336Z,65.59
2019-04-29T06:29:42.447Z,65.75
2019-04-29T06:32:12.420Z,65.92
2019-04-29T06:34:42.451Z,65.79
2019-04-29T06:37:12.651Z,65.50
2019-04-29T06:39:42.798Z,65.10
2019-04-29T06:42:15.536Z,64.70
2019-04-29T06:44:48.958Z,64.46
2019-04-29T06:47:17.250Z,64.07
2019-04-29T06:49:47.338Z,63.66
2019-04-29T06:52:19.422Z,63.18
2019-04-29T06:54:49.583Z,62.56
2019-04-29T06:57:19.815Z,62.16
2019-04-29T06:59:49.869Z,62.42
2019-04-29T07:02:20.279Z,62.38
2019-04-29T07:04:50.573Z,62.25
2019-04-29T07:07:20.669Z,62.37
2019-04-29T07:09:51.094Z,61.47
2019-04-29T07:12:21.232Z,61.16
2019-04-29T07:14:51.212Z,60.70
2019-04-29T07:17:24.661Z,60.70
2019-04-29T07:19:57.491Z,59.83
2019-04-29T07:22:27.608Z,59.58
2019-04-29T07:24:58.360Z,58.88
2019-04-29T07:27:28.436Z,58.27
2019-04-29T07:32:26.404Z,58.20
2019-04-29T07:34:56.646Z,57.42
2019-04-29T07:37:24.793Z,56.86
2019-04-29T07:39:52.710Z,57.66
2019-04-29T07:42:25.046Z,57.44
2019-04-29T07:45:43.319Z,57.64
2019-04-29T07:48:06.450Z,58.39
2019-04-29T07:50:34.820Z,59.32
2019-04-29T07:53:05.351Z,59.42
2019-04-29T07:55:35.483Z,58.94
2019-04-29T07:58:05.958Z,58.18
2019-04-29T08:00:37.452Z,58.29
2019-04-29T08:03:09.728Z,58.20
2019-04-29T08:05:40.711Z,57.83
2019-04-29T08:08:16.725Z,58.00
2019-04-29T08:10:55.899Z,57.97
2019-04-29T08:13:23.700Z,57.85
2019-04-29T08:15:55.053Z,57.72
2019-04-29T08:18:25.318Z,57.11
2019-04-29T08:20:56.320Z,56.71
2019-04-29T08:23:28.024Z,56.73
2019-04-29T08:26:02.628Z,57.07
2019-04-29T08:28:33.627Z,57.66
2019-04-29T08:31:04.356Z,57.84
2019-04-29T08:33:34.416Z,58.76
2019-04-29T08:36:04.768Z,59.34
2019-04-29T08:38:34.962Z,59.78
2019-04-29T08:41:05.822Z,60.48
2019-04-29T08:43:56.184Z,60.54
2019-04-29T08:46:27.751Z,60.76
2019-04-29T08:49:01.232Z,60.03
2019-04-29T08:51:31.526Z,60.29
2019-04-29T08:54:04.026Z,60.12
2019-04-29T08:56:35.540Z,62.07
2019-04-29T08:59:07.713Z,62.42
2019-04-29T09:01:38.288Z,61.13
2019-04-29T09:04:11.890Z,60.89
2019-04-29T09:06:42.114Z,59.25
2019-04-29T09:09:28.727Z,58.29
2019-04-29T09:13:54.559Z,58.58
2019-04-29T09:14:19.068Z,59.25
2019-04-29T09:16:49.366Z,59.50
2019-04-29T09:19:21.029Z,60.34
2019-04-29T09:21:55.022Z,60.93
2019-04-29T09:24:26.432Z,61.74
2019-04-29T09:27:05.082Z,62.64
2019-04-29T09:29:35.092Z,62.33
2019-04-29T09:32:06.738Z,64.61
2019-04-29T09:34:37.490Z,65.58
2019-04-29T09:37:07.871Z,66.61
2019-04-29T09:39:43.814Z,66.69
2019-04-29T09:42:31.335Z,66.51
2019-04-29T09:45:24.585Z,69.19
2019-04-29T09:47:55.629Z,70.12
2019-04-29T09:50:28.578Z,69.96
2019-04-29T09:52:59.367Z,72.09
2019-04-29T09:55:29.916Z,72.69
2019-04-29T09:58:00.070Z,72.94
2019-04-29T10:00:52.071Z,73.15
2019-04-29T10:03:35.467Z,73.46
2019-04-29T10:06:14.789Z,73.78
2019-04-29T10:08:46.464Z,73.90
2019-04-29T10:11:17.956Z,73.25
2019-04-29T10:13:48.253Z,72.39
2019-04-29T10:16:31.776Z,71.60
2019-04-29T10:19:05.502Z,72.01
2019-04-29T10:21:38.328Z,71.92
2019-04-29T10:24:09.409Z,71.77
2019-04-29T10:26:39.365Z,71.87
2019-04-29T10:29:18.589Z,71.78
2019-04-29T10:31:47.873Z,72.36
2019-04-29T10:34:18.838Z,74.39
2019-04-29T10:36:52.233Z,74.50
2019-04-29T10:39:52.358Z,74.50
2019-04-29T10:42:30.214Z,75.13
2019-04-29T10:45:07.891Z,75.65
2019-04-29T10:47:58.314Z,77.05
2019-04-29T10:50:32.838Z,77.88
2019-04-29T10:53:03.822Z,79.40
2019-04-29T10:55:33.930Z,80.53
2019-04-29T10:58:04.771Z,81.46
2019-04-29T11:01:18.561Z,82.19
2019-04-29T11:03:50.618Z,83.31
2019-04-29T11:06:31.453Z,83.19
2019-04-29T11:09:09.589Z,83.17
2019-04-29T11:11:40.254Z,83.74
2019-04-29T11:14:10.890Z,84.06
2019-04-29T11:16:46.405Z,84.10
2019-04-29T11:19:13.052Z,83.51
2019-04-29T11:21:43.846Z,83.64
2019-04-29T11:24:22.179Z,83.57
2019-04-29T11:27:11.437Z,83.54
2019-04-29T11:29:35.810Z,82.30
2019-04-29T11:32:11.151Z,82.83
2019-04-29T11:35:00.987Z,83.39
2019-04-29T11:37:33.085Z,84.35
2019-04-29T11:40:06.168Z,85.07
2019-04-29T11:42:41.700Z,85.07
2019-04-29T11:45:13.561Z,85.48
2019-04-29T11:47:44.598Z,85.46
2019-04-29T11:50:27.030Z,85.09
2019-04-29T11:52:58.003Z,85.53
2019-04-29T11:55:29.172Z,85.56
2019-04-29T11:58:05.125Z,85.29
2019-04-29T12:01:03.935Z,84.92
2019-04-29T12:03:38.185Z,84.51
2019-04-29T12:06:10.904Z,83.81
2019-04-29T12:08:41.784Z,83.77
2019-04-29T12:11:16.530Z,83.04
2019-04-29T12:14:12.997Z,82.54
2019-04-29T12:16:47.784Z,82.55
2019-04-29T12:19:22.744Z,82.36
2019-04-29T12:21:55.980Z,82.01
2019-04-29T12:24:31.970Z,81.43
2019-04-29T12:27:04.365Z,81.16
2019-04-29T12:29:37.725Z,80.41
2019-04-29T12:32:27.365Z,80.73
2019-04-29T12:35:21.512Z,82.69
2019-04-29T12:38:11.213Z,83.87
2019-04-29T12:40:57.903Z,84.78
2019-04-29T12:43:38.141Z,84.87
2019-04-29T12:46:16.416Z,85.41
2019-04-29T12:48:47.602Z,85.00
2019-04-29T12:51:18.295Z,85.32
2019-04-29T12:53:50.407Z,85.62
2019-04-29T12:56:47.946Z,86.00
2019-04-29T12:59:20.870Z,86.35
2019-04-29T13:02:24.163Z,86.50
2019-04-29T13:05:15.423Z,86.42
2019-04-29T13:08:06.533Z,86.53
2019-04-29T13:10:57.751Z,86.57
2019-04-29T13:13:29.104Z,86.60
2019-04-29T13:16:21.977Z,86.15
2019-04-29T13:19:29.457Z,86.11
2019-04-29T13:21:57.583Z,85.89
2019-04-29T13:24:28.407Z,85.67
2019-04-29T13:27:15.610Z,85.33
2019-04-29T13:29:40.424Z,84.80
2019-04-29T13:32:11.844Z,84.85
2019-04-29T13:34:45.674Z,84.26
2019-04-29T13:37:18.979Z,84.03
2019-04-29T13:39:56.095Z,83.56
2019-04-29T13:42:31.280Z,83.39
2019-04-29T13:45:12.947Z,83.20
2019-04-29T13:48:01.844Z,83.89
2019-04-29T13:50:45.641Z,84.51
2019-04-29T13:53:18.615Z,84.70
2019-04-29T13:55:50.270Z,85.45
2019-04-29T13:58:29.273Z,85.24
2019-04-29T14:01:31.253Z,85.22
2019-04-29T14:04:29.222Z,85.41
2019-04-29T14:06:59.499Z,85.50
2019-04-29T14:09:35.144Z,85.75
2019-04-29T14:12:42.373Z,85.84
2019-04-29T14:14:37.541Z,85.66
2019-04-29T14:17:25.330Z,85.66
2019-04-29T14:19:42.611Z,85.74
2019-04-29T14:22:21.987Z,85.76
2019-04-29T14:24:46.951Z,86.01
2019-04-29T14:27:24.984Z,85.91
2019-04-29T14:29:51.557Z,85.96
2019-04-29T14:32:33.246Z,85.74
2019-04-29T14:35:16.464Z,85.47
2019-04-29T14:37:55.009Z,85.24
2019-04-29T14:40:18.740Z,84.73
2019-04-29T14:43:03.064Z,84.49
2019-04-29T14:45:58.540Z,84.26
2019-04-29T14:48:43.118Z,84.25
2019-04-29T14:51:13.460Z,84.18
2019-04-29T14:53:55.787Z,83.52
2019-04-29T14:56:16.034Z,83.43
2019-04-29T14:58:48.077Z,83.29
2019-04-29T15:01:33.876Z,82.95
2019-04-29T15:04:18.485Z,82.99
2019-04-29T15:06:43.552Z,82.50
2019-04-29T15:09:20.040Z,82.46
2019-04-29T15:11:59.320Z,82.11
2019-04-29T15:14:40.986Z,82.05
2019-04-29T15:17:23.866Z,81.98
2019-04-29T15:20:18.288Z,81.80
2019-04-29T15:22:50.789Z,81.43
2019-04-29T15:25:23.732Z,81.46
2019-04-29T15:27:54.790Z,81.44
2019-04-29T15:30:31.719Z,81.37
2019-04-29T15:33:05.098Z,81.30
2019-04-29T15:35:35.642Z,81.34
2019-04-29T15:38:05.920Z,81.32
2019-04-29T15:40:42.820Z,81.54
2019-04-29T15:43:09.385Z,81.43
2019-04-29T15:45:41.187Z,81.37
2019-04-29T15:48:11.471Z,81.55
2019-04-29T15:50:42.521Z,81.68
2019-04-29T15:53:12.815Z,81.81
2019-04-29T15:55:43.327Z,82.22
2019-04-29T15:58:15.428Z,82.59
2019-04-29T16:00:46.195Z,83.11
2019-04-29T16:03:18.307Z,83.44
2019-04-29T16:06:21.829Z,83.93
2019-04-29T16:09:11.089Z,84.04
2019-04-29T16:12:16.529Z,84.27
2019-04-29T16:14:49.195Z,84.57
2019-04-29T16:17:20.755Z,84.90
2019-04-29T16:19:52.111Z,85.01
2019-04-29T16:22:22.681Z,84.96
2019-04-29T16:24:59.191Z,84.98
2019-04-29T16:27:25.361Z,85.10
2019-04-29T16:29:58.678Z,85.09
2019-04-29T16:32:37.928Z,84.94
2019-04-29T16:35:08.564Z,84.75
2019-04-29T16:37:39.086Z,84.77
2019-04-29T16:40:09.754Z,84.58
2019-04-29T16:42:58.364Z,84.35
2019-04-29T16:45:55.400Z,84.25
2019-04-29T16:48:27.334Z,83.95
2019-04-29T16:50:57.515Z,83.80
2019-04-29T16:53:28.049Z,83.77
2019-04-29T16:56:01.113Z,83.36
2019-04-29T16:58:31.353Z,83.41
2019-04-29T17:01:02.099Z,83.10
2019-04-29T17:03:32.724Z,83.02
2019-04-29T17:06:03.764Z,82.99
2019-04-29T17:09:02.953Z,82.94
2019-04-29T17:11:27.745Z,83.10
2019-04-29T17:14:03.545Z,82.90
2019-04-29T17:16:32.424Z,83.07
2019-04-29T17:19:19.083Z,83.50
2019-04-29T17:21:50.401Z,83.64
2019-04-29T17:24:20.409Z,83.56
2019-04-29T17:27:01.426Z,83.68
2019-04-29T17:29:49.659Z,83.58
2019-04-29T17:32:44.649Z,83.37
2019-04-29T17:35:21.541Z,83.23
2019-04-29T17:37:50.130Z,83.19
2019-04-29T17:40:21.386Z,82.99
2019-04-29T17:43:00.835Z,83.01
2019-04-29T17:45:39.824Z,82.95
2019-04-29T17:48:23.186Z,83.54
2019-04-29T17:51:00.169Z,83.34
2019-04-29T17:53:45.933Z,83.42
2019-04-29T17:56:26.992Z,83.65
2019-04-29T17:59:02.882Z,83.92
2019-04-29T18:01:51.172Z,84.02
2019-04-29T18:04:49.667Z,84.25
2019-04-29T18:07:35.128Z,84.57
2019-04-29T18:10:29.475Z,85.05
2019-04-29T18:13:04.249Z,85.15
2019-04-29T18:15:51.714Z,85.67
2019-04-29T18:18:17.007Z,86.11
2019-04-29T18:21:19.478Z,86.40
2019-04-29T18:24:05.044Z,86.47
2019-04-29T18:26:44.344Z,86.33
2019-04-29T18:29:16.198Z,86.39
2019-04-29T18:31:47.817Z,86.42
2019-04-29T18:34:18.423Z,86.35
2019-04-29T18:36:48.693Z,86.29
2019-04-29T18:39:24.987Z,86.08
2019-04-29T18:41:58.739Z,85.96
2019-04-29T18:44:27.915Z,85.69
2019-04-29T18:46:57.967Z,85.50
2019-04-29T18:49:28.018Z,85.37
2019-04-29T18:52:02.159Z,85.28
2019-04-29T18:54:31.582Z,85.05
2019-04-29T18:57:01.770Z,84.88
2019-04-29T18:59:34.470Z,84.74
2019-04-29T19:02:09.329Z,84.65
2019-04-29T19:05:05.135Z,84.69
2019-04-29T19:07:37.216Z,84.83
2019-04-29T19:10:14.151Z,84.94
2019-04-29T19:12:40.467Z,84.92
2019-04-29T19:15:11.991Z,85.03
2019-04-29T19:17:42.253Z,85.22
2019-04-29T19:20:18.340Z,85.25
2019-04-29T19:22:47.286Z,85.24
2019-04-29T19:25:17.647Z,85.14
2019-04-29T19:27:47.744Z,84.98
2019-04-29T19:30:21.018Z,84.81
2019-04-29T19:32:53.949Z,84.73
2019-04-29T19:35:22.447Z,84.72
2019-04-29T19:37:52.703Z,84.56
2019-04-29T19:40:23.333Z,84.40
2019-04-29T19:42:55.908Z,84.21
2019-04-29T19:47:59.604Z,83.94
2019-04-29T19:50:29.716Z,84.19
2019-04-29T19:53:00.725Z,84.18
2019-04-29T19:55:33.292Z,84.08
2019-04-29T19:58:06.588Z,84.00
2019-04-29T20:00:38.362Z,83.99
2019-04-29T20:03:20.565Z,84.00
2019-04-29T20:05:46.457Z,84.09
2019-04-29T20:08:37.439Z,84.13
2019-04-29T20:10:51.947Z,84.08
2019-04-29T20:13:20.286Z,84.10
2019-04-29T20:16:12.858Z,84.13
2019-04-29T20:19:02.231Z,84.18
2019-04-29T20:21:35.956Z,84.45
2019-04-29T20:24:09.452Z,84.49
2019-04-29T20:26:43.769Z,84.35
2019-04-29T20:29:12.339Z,84.30
2019-04-29T20:31:48.305Z,84.33
2019-04-29T20:34:20.320Z,84.34
2019-04-29T20:36:46.550Z,84.64
2019-04-29T20:39:23.051Z,84.90
2019-04-29T20:41:49.243Z,85.24
2019-04-29T20:44:19.640Z,85.36
2019-04-29T20:47:12.865Z,85.30
2019-04-29T20:49:26.243Z,85.04
2019-04-29T20:52:05.492Z,84.88
2019-04-29T20:54:37.324Z,84.82
2019-04-29T20:57:17.636Z,84.92
2019-04-29T20:59:42.108Z,84.90
2019-04-29T21:02:13.049Z,84.84
2019-04-29T21:04:46.278Z,84.90
2019-04-29T21:07:18.395Z,85.07
2019-04-29T21:09:48.040Z,85.18
2019-04-29T21:12:40.363Z,85.04
2019-04-29T21:15:16.498Z,84.79
2019-04-29T21:17:46.681Z,84.51
2019-04-29T21:20:16.829Z,84.38
2019-04-29T21:22:46.857Z,84.21
2019-04-29T21:25:17.036Z,84.28
2019-04-29T21:27:48.569Z,84.32
2019-04-29T21:30:20.096Z,84.32
2019-04-29T21:32:50.825Z,84.24
2019-04-29T21:35:35.336Z,84.03
2019-04-29T21:38:23.479Z,83.68
2019-04-29T21:40:58.873Z,83.50
2019-04-29T21:43:35.455Z,83.12
2019-04-29T21:46:05.788Z,82.71
2019-04-29T21:48:37.436Z,82.41
2019-04-29T21:51:11.233Z,82.34
2019-04-29T21:53:40.344Z,82.22
2019-04-29T21:56:09.457Z,82.34
2019-04-29T21:58:39.990Z,82.27
2019-04-29T22:01:10.598Z,82.60
2019-04-29T22:03:41.147Z,82.88
2019-04-29T22:06:16.230Z,82.96
2019-04-29T22:08:48.176Z,83.10
2019-04-29T22:11:18.900Z,83.16
2019-04-29T22:13:49.709Z,83.18
2019-04-29T22:16:19.953Z,83.32
2019-04-29T22:18:51.983Z,83.47
2019-04-29T22:21:23.346Z,83.66
2019-04-29T22:23:55.256Z,83.64
2019-04-29T22:26:26.806Z,83.53
2019-04-29T22:29:01.814Z,83.61
2019-04-29T22:31:33.818Z,83.66
2019-04-29T22:34:02.651Z,83.77
2019-04-29T22:36:33.281Z,83.78
2019-04-29T22:39:06.158Z,83.87
2019-04-29T22:41:58.280Z,83.99
2019-04-29T22:44:28.779Z,84.07
2019-04-29T22:46:58.853Z,84.10
2019-04-29T22:49:29.394Z,84.12
2019-04-29T22:51:59.510Z,84.16
2019-04-29T22:54:29.551Z,84.20
2019-04-29T22:56:59.748Z,84.45
2019-04-29T22:59:29.714Z,84.49
2019-04-29T23:02:00.034Z,84.36
2019-04-29T23:04:30.100Z,84.34
2019-04-29T23:07:00.039Z,84.39
2019-04-29T23:09:30.053Z,84.44
2019-04-29T23:12:00.466Z,84.42
2019-04-29T23:14:30.393Z,84.43
2019-04-29T23:17:00.702Z,84.46
2019-04-29T23:19:30.806Z,84.39
2019-04-29T23:22:22.107Z,84.29
2019-04-29T23:25:08.125Z,84.23
2019-04-29T23:27:38.193Z,84.20
2019-04-29T23:30:13.641Z,84.23
2019-04-29T23:32:44.275Z,84.20
2019-04-29T23:35:14.919Z,84.20
2019-04-29T23:37:45.736Z,84.53
2019-04-29T23:40:16.096Z,84.63
2019-04-29T23:42:47.949Z,84.63
2019-04-29T23:45:20.931Z,84.29
2019-04-29T23:47:50.462Z,84.44
2019-04-29T23:50:20.646Z,84.44
2019-04-29T23:52:51.962Z,84.92
2019-04-29T23:55:27.746Z,84.99
2019-04-29T23:58:09.962Z,85.33
